CLH2306 EDDF-EHAM
Flight info
| Callsign | CLH2306 |
|---|---|
| Flight time | 1h 3m |
| Altitude | 24000 |
| Route | MARUN8M MARUN Y152 ARPEG Z850 ABILU DCT NORKU |
| Aircraft | DH8D/M-SDE2E3FGRY/H |
Departure
| Time | 2026-05-06 12:48 |
|---|---|
| Airport | Frankfurt Main Airport (EDDF) |
Arrival
| Time | 2026-05-06 13:51 |
|---|---|
| Airport | Amsterdam Airport Schiphol (EHAM) |
| Time | Latitude | Longitude | Altitude | Speed | Heading |
|---|---|---|---|---|---|
| 2026-05-06 11:53 | 50.04098 | 8.55757 | 355 ft | 0 kts | 160° |
| 2026-05-06 12:35 | 50.04095 | 8.55758 | 356 ft | 1 kts | 167° |
| 2026-05-06 12:35 | 50.04078 | 8.55760 | 356 ft | 2 kts | 171° |
| 2026-05-06 12:35 | 50.04060 | 8.55775 | 355 ft | 3 kts | 139° |
| 2026-05-06 12:35 | 50.04041 | 8.55840 | 355 ft | 9 kts | 94° |
| 2026-05-06 12:36 | 50.04057 | 8.55974 | 355 ft | 14 kts | 72° |
| 2026-05-06 12:36 | 50.04092 | 8.56121 | 356 ft | 14 kts | 70° |
| 2026-05-06 12:36 | 50.04125 | 8.56264 | 356 ft | 13 kts | 71° |
| 2026-05-06 12:36 | 50.04156 | 8.56404 | 356 ft | 13 kts | 71° |
| 2026-05-06 12:37 | 50.04191 | 8.56536 | 356 ft | 13 kts | 69° |
| 2026-05-06 12:37 | 50.04222 | 8.56665 | 356 ft | 12 kts | 70° |
| 2026-05-06 12:37 | 50.04252 | 8.56791 | 356 ft | 12 kts | 68° |
| 2026-05-06 12:37 | 50.04281 | 8.56913 | 356 ft | 11 kts | 70° |
| 2026-05-06 12:38 | 50.04311 | 8.57036 | 356 ft | 13 kts | 70° |
| 2026-05-06 12:38 | 50.04349 | 8.57195 | 356 ft | 17 kts | 70° |
| 2026-05-06 12:38 | 50.04390 | 8.57370 | 356 ft | 16 kts | 71° |
| 2026-05-06 12:38 | 50.04429 | 8.57534 | 356 ft | 15 kts | 70° |
| 2026-05-06 12:39 | 50.04465 | 8.57683 | 356 ft | 13 kts | 70° |
| 2026-05-06 12:39 | 50.04497 | 8.57816 | 356 ft | 12 kts | 73° |
| 2026-05-06 12:39 | 50.04527 | 8.57941 | 356 ft | 12 kts | 70° |
| 2026-05-06 12:39 | 50.04556 | 8.58063 | 356 ft | 11 kts | 70° |
| 2026-05-06 12:40 | 50.04585 | 8.58182 | 356 ft | 11 kts | 69° |
| 2026-05-06 12:40 | 50.04613 | 8.58298 | 356 ft | 11 kts | 70° |
| 2026-05-06 12:40 | 50.04640 | 8.58412 | 356 ft | 11 kts | 70° |
| 2026-05-06 12:40 | 50.04657 | 8.58526 | 356 ft | 10 kts | 105° |
| 2026-05-06 12:41 | 50.04632 | 8.58567 | 356 ft | 2 kts | 157° |
| 2026-05-06 12:41 | 50.04628 | 8.58570 | 356 ft | 0 kts | 158° |
| 2026-05-06 12:42 | 50.04619 | 8.58575 | 356 ft | 2 kts | 160° |
| 2026-05-06 12:42 | 50.04611 | 8.58580 | 356 ft | 0 kts | 161° |
| 2026-05-06 12:44 | 50.04598 | 8.58587 | 356 ft | 6 kts | 161° |
| 2026-05-06 12:44 | 50.04531 | 8.58617 | 356 ft | 11 kts | 179° |
| 2026-05-06 12:44 | 50.04484 | 8.58558 | 356 ft | 4 kts | 248° |
| 2026-05-06 12:45 | 50.04482 | 8.58550 | 356 ft | 0 kts | 249° |
| 2026-05-06 12:47 | 50.04477 | 8.58531 | 355 ft | 6 kts | 249° |
| 2026-05-06 12:47 | 50.04399 | 8.58206 | 355 ft | 71 kts | 250° |
| 2026-05-06 12:47 | 50.04144 | 8.57136 | 355 ft | 136 kts | 249° |
| 2026-05-06 12:47 | 50.03792 | 8.55655 | 613 ft | 148 kts | 247° |
| 2026-05-06 12:48 | 50.03431 | 8.54122 | 1087 ft | 153 kts | 247° |
| 2026-05-06 12:48 | 50.03051 | 8.52467 | 1379 ft | 174 kts | 248° |
| 2026-05-06 12:48 | 50.02632 | 8.50677 | 1893 ft | 179 kts | 246° |
| 2026-05-06 12:48 | 50.01896 | 8.49181 | 2391 ft | 178 kts | 207° |
| 2026-05-06 12:49 | 50.00716 | 8.48619 | 2968 ft | 179 kts | 193° |
| 2026-05-06 12:49 | 49.99498 | 8.48190 | 3557 ft | 182 kts | 194° |
| 2026-05-06 12:49 | 49.98211 | 8.47752 | 3858 ft | 203 kts | 194° |
| 2026-05-06 12:49 | 49.96775 | 8.47277 | 4198 ft | 215 kts | 193° |
| 2026-05-06 12:50 | 49.95322 | 8.46713 | 4698 ft | 216 kts | 198° |
| 2026-05-06 12:50 | 49.93870 | 8.46039 | 5083 ft | 220 kts | 199° |
| 2026-05-06 12:50 | 49.92412 | 8.45326 | 5497 ft | 221 kts | 204° |
| 2026-05-06 12:50 | 49.91254 | 8.43865 | 5836 ft | 219 kts | 242° |
| 2026-05-06 12:51 | 49.91030 | 8.41560 | 6200 ft | 222 kts | 275° |
| 2026-05-06 12:51 | 49.91277 | 8.39187 | 6673 ft | 224 kts | 278° |
| 2026-05-06 12:51 | 49.91769 | 8.36903 | 7107 ft | 230 kts | 303° |
| 2026-05-06 12:51 | 49.93050 | 8.35417 | 7498 ft | 237 kts | 333° |
| 2026-05-06 12:52 | 49.94574 | 8.34411 | 7974 ft | 239 kts | 334° |
| 2026-05-06 12:52 | 49.96112 | 8.33412 | 8397 ft | 244 kts | 335° |
| 2026-05-06 12:52 | 49.97708 | 8.32376 | 8746 ft | 251 kts | 336° |
| 2026-05-06 12:52 | 49.99342 | 8.31312 | 9051 ft | 260 kts | 337° |
| 2026-05-06 12:53 | 50.01026 | 8.30212 | 9468 ft | 263 kts | 337° |
| 2026-05-06 12:53 | 50.02724 | 8.29101 | 9896 ft | 266 kts | 337° |
| 2026-05-06 12:53 | 50.04480 | 8.28179 | 10312 ft | 268 kts | 352° |
| 2026-05-06 12:53 | 50.06326 | 8.28547 | 10610 ft | 274 kts | 17° |
| 2026-05-06 12:54 | 50.08168 | 8.29495 | 10819 ft | 282 kts | 18° |
| 2026-05-06 12:54 | 50.10048 | 8.30489 | 11057 ft | 289 kts | 18° |
| 2026-05-06 12:54 | 50.11963 | 8.31508 | 11341 ft | 293 kts | 17° |
| 2026-05-06 12:54 | 50.13912 | 8.32540 | 11593 ft | 299 kts | 17° |
| 2026-05-06 12:55 | 50.15888 | 8.33585 | 11945 ft | 301 kts | 17° |
| 2026-05-06 12:55 | 50.17868 | 8.34629 | 12294 ft | 301 kts | 17° |
| 2026-05-06 12:55 | 50.19861 | 8.35681 | 12620 ft | 303 kts | 17° |
| 2026-05-06 12:55 | 50.21859 | 8.36734 | 12964 ft | 305 kts | 17° |
| 2026-05-06 12:56 | 50.23872 | 8.37795 | 13300 ft | 306 kts | 17° |
| 2026-05-06 12:56 | 50.25898 | 8.38861 | 13597 ft | 308 kts | 17° |
| 2026-05-06 12:56 | 50.27936 | 8.39937 | 13886 ft | 309 kts | 17° |
| 2026-05-06 12:56 | 50.29978 | 8.41016 | 14152 ft | 311 kts | 17° |
| 2026-05-06 12:57 | 50.32019 | 8.42125 | 14474 ft | 311 kts | 17° |
| 2026-05-06 12:57 | 50.34064 | 8.43245 | 14728 ft | 312 kts | 17° |
| 2026-05-06 12:57 | 50.36120 | 8.44370 | 14959 ft | 314 kts | 17° |
| 2026-05-06 12:57 | 50.38180 | 8.45497 | 15233 ft | 316 kts | 17° |
| 2026-05-06 12:58 | 50.40258 | 8.46634 | 15474 ft | 317 kts | 17° |
| 2026-05-06 12:58 | 50.42339 | 8.47773 | 15687 ft | 319 kts | 17° |
| 2026-05-06 12:58 | 50.44433 | 8.48919 | 15904 ft | 320 kts | 17° |
| 2026-05-06 12:58 | 50.46538 | 8.50072 | 16117 ft | 322 kts | 17° |
| 2026-05-06 12:59 | 50.48655 | 8.51203 | 16326 ft | 323 kts | 15° |
| 2026-05-06 12:59 | 50.50806 | 8.52232 | 16552 ft | 323 kts | 14° |
| 2026-05-06 12:59 | 50.52956 | 8.53245 | 16776 ft | 324 kts | 14° |
| 2026-05-06 12:59 | 50.55119 | 8.54267 | 16990 ft | 325 kts | 14° |
| 2026-05-06 13:00 | 50.57277 | 8.55292 | 17221 ft | 325 kts | 14° |
| 2026-05-06 13:00 | 50.59451 | 8.56326 | 17402 ft | 327 kts | 14° |
| 2026-05-06 13:00 | 50.61625 | 8.57365 | 17613 ft | 328 kts | 14° |
| 2026-05-06 13:00 | 50.63812 | 8.58412 | 17807 ft | 329 kts | 14° |
| 2026-05-06 13:01 | 50.65995 | 8.59460 | 17981 ft | 330 kts | 14° |
| 2026-05-06 13:01 | 50.68196 | 8.60517 | 18141 ft | 332 kts | 14° |
| 2026-05-06 13:01 | 50.70400 | 8.61577 | 18304 ft | 333 kts | 14° |
| 2026-05-06 13:01 | 50.72620 | 8.62647 | 18494 ft | 334 kts | 14° |
| 2026-05-06 13:02 | 50.74843 | 8.63718 | 18659 ft | 335 kts | 14° |
| 2026-05-06 13:02 | 50.77066 | 8.64793 | 18845 ft | 336 kts | 14° |
| 2026-05-06 13:02 | 50.79315 | 8.65801 | 18992 ft | 335 kts | 9° |
| 2026-05-06 13:02 | 50.81599 | 8.65669 | 19087 ft | 327 kts | 340° |
| 2026-05-06 13:03 | 50.83508 | 8.63906 | 19214 ft | 317 kts | 314° |
| 2026-05-06 13:03 | 50.85020 | 8.61398 | 19390 ft | 315 kts | 308° |
| 2026-05-06 13:03 | 50.86480 | 8.58812 | 19550 ft | 316 kts | 308° |
| 2026-05-06 13:03 | 50.87929 | 8.56200 | 19694 ft | 317 kts | 308° |
| 2026-05-06 13:04 | 50.89370 | 8.53574 | 19859 ft | 316 kts | 307° |
| 2026-05-06 13:04 | 50.90803 | 8.50943 | 19941 ft | 317 kts | 307° |
| 2026-05-06 13:04 | 50.92234 | 8.48300 | 20026 ft | 317 kts | 307° |
| 2026-05-06 13:04 | 50.93668 | 8.45639 | 20112 ft | 318 kts | 307° |
| 2026-05-06 13:05 | 50.95097 | 8.42979 | 20216 ft | 318 kts | 307° |
| 2026-05-06 13:05 | 50.96528 | 8.40309 | 20299 ft | 318 kts | 307° |
| 2026-05-06 13:05 | 50.97953 | 8.37640 | 20423 ft | 318 kts | 307° |
| 2026-05-06 13:05 | 50.99381 | 8.34962 | 20492 ft | 319 kts | 307° |
| 2026-05-06 13:06 | 51.00813 | 8.32276 | 20583 ft | 318 kts | 307° |
| 2026-05-06 13:06 | 51.02456 | 8.29901 | 20624 ft | 324 kts | 323° |
| 2026-05-06 13:06 | 51.04411 | 8.28112 | 20705 ft | 325 kts | 328° |
| 2026-05-06 13:06 | 51.06392 | 8.26371 | 20758 ft | 326 kts | 327° |
| 2026-05-06 13:07 | 51.08381 | 8.24623 | 20816 ft | 327 kts | 328° |
| 2026-05-06 13:07 | 51.10364 | 8.22874 | 20897 ft | 327 kts | 328° |
| 2026-05-06 13:07 | 51.12355 | 8.21115 | 20955 ft | 327 kts | 327° |
| 2026-05-06 13:07 | 51.14346 | 8.19352 | 21015 ft | 328 kts | 328° |
| 2026-05-06 13:08 | 51.16326 | 8.17594 | 21100 ft | 327 kts | 328° |
| 2026-05-06 13:08 | 51.18308 | 8.15831 | 21161 ft | 327 kts | 328° |
| 2026-05-06 13:08 | 51.20293 | 8.14061 | 21215 ft | 327 kts | 328° |
| 2026-05-06 13:08 | 51.22276 | 8.12290 | 21284 ft | 327 kts | 328° |
| 2026-05-06 13:09 | 51.24258 | 8.10517 | 21336 ft | 327 kts | 328° |
| 2026-05-06 13:09 | 51.26240 | 8.08743 | 21444 ft | 327 kts | 328° |
| 2026-05-06 13:09 | 51.28223 | 8.06966 | 21550 ft | 327 kts | 328° |
| 2026-05-06 13:09 | 51.30205 | 8.05187 | 21656 ft | 327 kts | 328° |
| 2026-05-06 13:10 | 51.32188 | 8.03405 | 21753 ft | 328 kts | 328° |
| 2026-05-06 13:10 | 51.34174 | 8.01619 | 21827 ft | 329 kts | 328° |
| 2026-05-06 13:10 | 51.36163 | 7.99827 | 21908 ft | 329 kts | 328° |
| 2026-05-06 13:10 | 51.38154 | 7.98031 | 22004 ft | 329 kts | 329° |
| 2026-05-06 13:11 | 51.40147 | 7.96232 | 22079 ft | 330 kts | 328° |
| 2026-05-06 13:11 | 51.42073 | 7.94258 | 22151 ft | 329 kts | 322° |
| 2026-05-06 13:11 | 51.43904 | 7.92085 | 22249 ft | 328 kts | 322° |
| 2026-05-06 13:11 | 51.45730 | 7.89899 | 22331 ft | 329 kts | 322° |
| 2026-05-06 13:12 | 51.47560 | 7.87708 | 22393 ft | 329 kts | 322° |
| 2026-05-06 13:12 | 51.49388 | 7.85520 | 22480 ft | 329 kts | 322° |
| 2026-05-06 13:12 | 51.51215 | 7.83333 | 22567 ft | 328 kts | 322° |
| 2026-05-06 13:12 | 51.53032 | 7.81158 | 22704 ft | 326 kts | 322° |
| 2026-05-06 13:13 | 51.54849 | 7.78983 | 22759 ft | 326 kts | 322° |
| 2026-05-06 13:13 | 51.56666 | 7.76806 | 22831 ft | 327 kts | 322° |
| 2026-05-06 13:13 | 51.58486 | 7.74624 | 22883 ft | 328 kts | 322° |
| 2026-05-06 13:13 | 51.60308 | 7.72440 | 22933 ft | 328 kts | 322° |
| 2026-05-06 13:14 | 51.62138 | 7.70243 | 22985 ft | 329 kts | 322° |
| 2026-05-06 13:14 | 51.63962 | 7.68050 | 23082 ft | 327 kts | 322° |
| 2026-05-06 13:14 | 51.65782 | 7.65862 | 23171 ft | 326 kts | 323° |
| 2026-05-06 13:14 | 51.67599 | 7.63684 | 23227 ft | 327 kts | 323° |
| 2026-05-06 13:15 | 51.69413 | 7.61494 | 23303 ft | 326 kts | 322° |
| 2026-05-06 13:15 | 51.71220 | 7.59308 | 23373 ft | 325 kts | 323° |
| 2026-05-06 13:15 | 51.73020 | 7.57138 | 23499 ft | 322 kts | 323° |
| 2026-05-06 13:15 | 51.74796 | 7.54989 | 23675 ft | 318 kts | 322° |
| 2026-05-06 13:16 | 51.76563 | 7.52853 | 23741 ft | 318 kts | 323° |
| 2026-05-06 13:16 | 51.78331 | 7.50708 | 23790 ft | 319 kts | 323° |
| 2026-05-06 13:16 | 51.80106 | 7.48557 | 23820 ft | 320 kts | 323° |
| 2026-05-06 13:16 | 51.81885 | 7.46398 | 23818 ft | 321 kts | 322° |
| 2026-05-06 13:17 | 51.83669 | 7.44230 | 23826 ft | 323 kts | 323° |
| 2026-05-06 13:17 | 51.85460 | 7.42054 | 23835 ft | 324 kts | 323° |
| 2026-05-06 13:17 | 51.87258 | 7.39866 | 23837 ft | 325 kts | 323° |
| 2026-05-06 13:17 | 51.89065 | 7.37664 | 23836 ft | 326 kts | 323° |
| 2026-05-06 13:18 | 51.90874 | 7.35458 | 23836 ft | 327 kts | 323° |
| 2026-05-06 13:18 | 51.92691 | 7.33239 | 23839 ft | 327 kts | 322° |
| 2026-05-06 13:18 | 51.94506 | 7.31022 | 23842 ft | 328 kts | 322° |
| 2026-05-06 13:18 | 51.96324 | 7.28797 | 23838 ft | 328 kts | 322° |
| 2026-05-06 13:19 | 51.98140 | 7.26572 | 23839 ft | 329 kts | 322° |
| 2026-05-06 13:19 | 51.99959 | 7.24342 | 23836 ft | 329 kts | 322° |
| 2026-05-06 13:19 | 52.01781 | 7.22105 | 23831 ft | 329 kts | 322° |
| 2026-05-06 13:19 | 52.03604 | 7.19866 | 23833 ft | 330 kts | 322° |
| 2026-05-06 13:20 | 52.05431 | 7.17619 | 23835 ft | 330 kts | 322° |
| 2026-05-06 13:20 | 52.07257 | 7.15370 | 23832 ft | 330 kts | 322° |
| 2026-05-06 13:20 | 52.09080 | 7.13121 | 23824 ft | 330 kts | 322° |
| 2026-05-06 13:20 | 52.10910 | 7.10869 | 23854 ft | 329 kts | 323° |
| 2026-05-06 13:21 | 52.12730 | 7.08620 | 23826 ft | 329 kts | 322° |
| 2026-05-06 13:21 | 52.14541 | 7.06374 | 23825 ft | 329 kts | 322° |
| 2026-05-06 13:21 | 52.16357 | 7.04139 | 23868 ft | 327 kts | 322° |
| 2026-05-06 13:21 | 52.18163 | 7.01897 | 23847 ft | 328 kts | 322° |
| 2026-05-06 13:22 | 52.19976 | 6.99649 | 23848 ft | 329 kts | 322° |
| 2026-05-06 13:22 | 52.21739 | 6.97297 | 23837 ft | 329 kts | 315° |
| 2026-05-06 13:22 | 52.23237 | 6.94491 | 23854 ft | 329 kts | 308° |
| 2026-05-06 13:22 | 52.24676 | 6.91593 | 23861 ft | 330 kts | 308° |
| 2026-05-06 13:23 | 52.26135 | 6.88649 | 23608 ft | 339 kts | 308° |
| 2026-05-06 13:23 | 52.27607 | 6.85678 | 23200 ft | 335 kts | 308° |
| 2026-05-06 13:23 | 52.29054 | 6.82754 | 22786 ft | 330 kts | 308° |
| 2026-05-06 13:23 | 52.30484 | 6.79866 | 22373 ft | 326 kts | 308° |
| 2026-05-06 13:24 | 52.31901 | 6.77009 | 21958 ft | 323 kts | 308° |
| 2026-05-06 13:24 | 52.33301 | 6.74184 | 21547 ft | 320 kts | 308° |
| 2026-05-06 13:24 | 52.34691 | 6.71380 | 21138 ft | 317 kts | 308° |
| 2026-05-06 13:24 | 52.36070 | 6.68596 | 20729 ft | 314 kts | 308° |
| 2026-05-06 13:25 | 52.37438 | 6.65835 | 20323 ft | 312 kts | 308° |
| 2026-05-06 13:25 | 52.38792 | 6.63098 | 19914 ft | 310 kts | 308° |
| 2026-05-06 13:25 | 52.40140 | 6.60372 | 19505 ft | 308 kts | 308° |
| 2026-05-06 13:25 | 52.41479 | 6.57662 | 19098 ft | 306 kts | 308° |
| 2026-05-06 13:26 | 52.42811 | 6.54964 | 18697 ft | 305 kts | 308° |
| 2026-05-06 13:26 | 52.44136 | 6.52278 | 18294 ft | 303 kts | 308° |
| 2026-05-06 13:26 | 52.45451 | 6.49608 | 17891 ft | 301 kts | 308° |
| 2026-05-06 13:26 | 52.46626 | 6.46805 | 17466 ft | 299 kts | 294° |
| 2026-05-06 13:27 | 52.47061 | 6.43527 | 17089 ft | 296 kts | 276° |
| 2026-05-06 13:27 | 52.47235 | 6.40189 | 16701 ft | 294 kts | 276° |
| 2026-05-06 13:27 | 52.47398 | 6.36859 | 16299 ft | 294 kts | 276° |
| 2026-05-06 13:27 | 52.47557 | 6.33536 | 15894 ft | 292 kts | 275° |
| 2026-05-06 13:28 | 52.47715 | 6.30257 | 15500 ft | 291 kts | 275° |
| 2026-05-06 13:28 | 52.47875 | 6.26949 | 15093 ft | 291 kts | 275° |
| 2026-05-06 13:28 | 52.48035 | 6.23656 | 14694 ft | 290 kts | 275° |
| 2026-05-06 13:28 | 52.48193 | 6.20372 | 14292 ft | 290 kts | 276° |
| 2026-05-06 13:29 | 52.48352 | 6.17098 | 13892 ft | 289 kts | 276° |
| 2026-05-06 13:29 | 52.48509 | 6.13826 | 13496 ft | 288 kts | 276° |
| 2026-05-06 13:29 | 52.48666 | 6.10561 | 13086 ft | 288 kts | 276° |
| 2026-05-06 13:29 | 52.48822 | 6.07302 | 12689 ft | 287 kts | 276° |
| 2026-05-06 13:30 | 52.48976 | 6.04049 | 12296 ft | 286 kts | 276° |
| 2026-05-06 13:30 | 52.49130 | 6.00810 | 11892 ft | 286 kts | 276° |
| 2026-05-06 13:30 | 52.49282 | 5.97574 | 11482 ft | 285 kts | 276° |
| 2026-05-06 13:30 | 52.49434 | 5.94346 | 11098 ft | 284 kts | 276° |
| 2026-05-06 13:31 | 52.49583 | 5.91143 | 10809 ft | 280 kts | 276° |
| 2026-05-06 13:31 | 52.49728 | 5.88000 | 10520 ft | 275 kts | 276° |
| 2026-05-06 13:31 | 52.49870 | 5.84902 | 10248 ft | 271 kts | 276° |
| 2026-05-06 13:31 | 52.50010 | 5.81841 | 9978 ft | 268 kts | 277° |
| 2026-05-06 13:32 | 52.50148 | 5.78818 | 9720 ft | 265 kts | 277° |
| 2026-05-06 13:32 | 52.50285 | 5.75816 | 9463 ft | 263 kts | 277° |
| 2026-05-06 13:32 | 52.50419 | 5.72840 | 9207 ft | 261 kts | 277° |
| 2026-05-06 13:32 | 52.50551 | 5.69889 | 8951 ft | 259 kts | 277° |
| 2026-05-06 13:33 | 52.50682 | 5.66955 | 8694 ft | 258 kts | 277° |
| 2026-05-06 13:33 | 52.50812 | 5.64039 | 8438 ft | 256 kts | 277° |
| 2026-05-06 13:33 | 52.50941 | 5.61136 | 8182 ft | 255 kts | 277° |
| 2026-05-06 13:33 | 52.51064 | 5.58242 | 7926 ft | 254 kts | 276° |
| 2026-05-06 13:34 | 52.50850 | 5.55367 | 7665 ft | 256 kts | 256° |
| 2026-05-06 13:34 | 52.50272 | 5.52623 | 7423 ft | 255 kts | 252° |
| 2026-05-06 13:34 | 52.49675 | 5.49899 | 7173 ft | 254 kts | 252° |
| 2026-05-06 13:34 | 52.49078 | 5.47185 | 6978 ft | 250 kts | 252° |
| 2026-05-06 13:35 | 52.48489 | 5.44496 | 6914 ft | 251 kts | 252° |
| 2026-05-06 13:35 | 52.47903 | 5.41802 | 6891 ft | 251 kts | 252° |
| 2026-05-06 13:35 | 52.47320 | 5.39118 | 6882 ft | 250 kts | 252° |
| 2026-05-06 13:35 | 52.46738 | 5.36443 | 6880 ft | 249 kts | 252° |
| 2026-05-06 13:36 | 52.46159 | 5.33773 | 6882 ft | 248 kts | 251° |
| 2026-05-06 13:36 | 52.45582 | 5.31123 | 6883 ft | 247 kts | 251° |
| 2026-05-06 13:36 | 52.45007 | 5.28481 | 6884 ft | 246 kts | 251° |
| 2026-05-06 13:36 | 52.44434 | 5.25845 | 6884 ft | 245 kts | 251° |
| 2026-05-06 13:37 | 52.43862 | 5.23220 | 6884 ft | 245 kts | 251° |
| 2026-05-06 13:37 | 52.43293 | 5.20604 | 6884 ft | 244 kts | 251° |
| 2026-05-06 13:37 | 52.42723 | 5.17996 | 6884 ft | 243 kts | 251° |
| 2026-05-06 13:37 | 52.42155 | 5.15396 | 6885 ft | 243 kts | 251° |
| 2026-05-06 13:38 | 52.41585 | 5.12790 | 6885 ft | 242 kts | 252° |
| 2026-05-06 13:38 | 52.41019 | 5.10203 | 6885 ft | 241 kts | 251° |
| 2026-05-06 13:38 | 52.40453 | 5.07625 | 6885 ft | 241 kts | 251° |
| 2026-05-06 13:38 | 52.39887 | 5.05045 | 6885 ft | 240 kts | 251° |
| 2026-05-06 13:39 | 52.39320 | 5.02476 | 6884 ft | 240 kts | 251° |
| 2026-05-06 13:39 | 52.38755 | 4.99913 | 6885 ft | 239 kts | 251° |
| 2026-05-06 13:39 | 52.38194 | 4.97362 | 6885 ft | 239 kts | 251° |
| 2026-05-06 13:39 | 52.37627 | 4.94801 | 6885 ft | 238 kts | 251° |
| 2026-05-06 13:40 | 52.37065 | 4.92258 | 6883 ft | 238 kts | 251° |
| 2026-05-06 13:40 | 52.36495 | 4.89677 | 6718 ft | 246 kts | 252° |
| 2026-05-06 13:40 | 52.35901 | 4.86992 | 6488 ft | 256 kts | 251° |
| 2026-05-06 13:40 | 52.35287 | 4.84223 | 6250 ft | 260 kts | 251° |
| 2026-05-06 13:41 | 52.34669 | 4.81452 | 6001 ft | 260 kts | 251° |
| 2026-05-06 13:41 | 52.34049 | 4.78688 | 5750 ft | 259 kts | 251° |
| 2026-05-06 13:41 | 52.33462 | 4.75905 | 5493 ft | 257 kts | 257° |
| 2026-05-06 13:41 | 52.33461 | 4.73045 | 5232 ft | 251 kts | 283° |
| 2026-05-06 13:42 | 52.33835 | 4.70299 | 4985 ft | 245 kts | 285° |
| 2026-05-06 13:42 | 52.34215 | 4.67619 | 4729 ft | 240 kts | 286° |
| 2026-05-06 13:42 | 52.34553 | 4.64976 | 4467 ft | 237 kts | 278° |
| 2026-05-06 13:42 | 52.34227 | 4.62389 | 4194 ft | 235 kts | 244° |
| 2026-05-06 13:43 | 52.33394 | 4.60121 | 3953 ft | 231 kts | 239° |
| 2026-05-06 13:43 | 52.32545 | 4.57921 | 3698 ft | 228 kts | 239° |
| 2026-05-06 13:43 | 52.31700 | 4.55743 | 3441 ft | 225 kts | 239° |
| 2026-05-06 13:43 | 52.30872 | 4.53604 | 3186 ft | 222 kts | 239° |
| 2026-05-06 13:44 | 52.30051 | 4.51488 | 2952 ft | 222 kts | 239° |
| 2026-05-06 13:44 | 52.29210 | 4.49308 | 2772 ft | 230 kts | 239° |
| 2026-05-06 13:44 | 52.28363 | 4.47117 | 2792 ft | 229 kts | 239° |
| 2026-05-06 13:44 | 52.27494 | 4.44942 | 2758 ft | 230 kts | 234° |
| 2026-05-06 13:45 | 52.26205 | 4.43429 | 2524 ft | 230 kts | 194° |
| 2026-05-06 13:45 | 52.23425 | 4.44770 | 2090 ft | 205 kts | 144° |
| 2026-05-06 13:45 | 52.22253 | 4.45986 | 2003 ft | 191 kts | 138° |
| 2026-05-06 13:46 | 52.21562 | 4.47579 | 1988 ft | 165 kts | 105° |
| 2026-05-06 13:46 | 52.21189 | 4.49387 | 2018 ft | 167 kts | 104° |
| 2026-05-06 13:46 | 52.20842 | 4.51108 | 2000 ft | 153 kts | 102° |
| 2026-05-06 13:46 | 52.20901 | 4.52669 | 1968 ft | 133 kts | 65° |
| 2026-05-06 13:47 | 52.21360 | 4.54059 | 1997 ft | 147 kts | 60° |
| 2026-05-06 13:47 | 52.21898 | 4.55575 | 2006 ft | 162 kts | 58° |
| 2026-05-06 13:47 | 52.22498 | 4.57137 | 1968 ft | 157 kts | 57° |
| 2026-05-06 13:47 | 52.23048 | 4.58552 | 1950 ft | 139 kts | 57° |
| 2026-05-06 13:48 | 52.23538 | 4.59830 | 1954 ft | 129 kts | 57° |
| 2026-05-06 13:48 | 52.24021 | 4.61089 | 1903 ft | 137 kts | 57° |
| 2026-05-06 13:48 | 52.24555 | 4.62492 | 1746 ft | 153 kts | 57° |
| 2026-05-06 13:48 | 52.25121 | 4.63942 | 1471 ft | 149 kts | 56° |
| 2026-05-06 13:49 | 52.25667 | 4.65335 | 1237 ft | 142 kts | 57° |
| 2026-05-06 13:49 | 52.26181 | 4.66661 | 1029 ft | 135 kts | 57° |
| 2026-05-06 13:49 | 52.26662 | 4.67904 | 834 ft | 124 kts | 57° |
| 2026-05-06 13:49 | 52.27119 | 4.69103 | 702 ft | 127 kts | 58° |
| 2026-05-06 13:50 | 52.27606 | 4.70368 | 538 ft | 137 kts | 58° |
| 2026-05-06 13:50 | 52.28131 | 4.71723 | 385 ft | 143 kts | 56° |
| 2026-05-06 13:50 | 52.28651 | 4.73024 | 166 ft | 132 kts | 57° |
| 2026-05-06 13:50 | 52.29126 | 4.74281 | 15 ft | 122 kts | 58° |
| 2026-05-06 13:51 | 52.29451 | 4.75127 | 0 ft | 54 kts | 57° |
| 2026-05-06 13:51 | 52.29597 | 4.75509 | 0 ft | 29 kts | 58° |
| 2026-05-06 13:51 | 52.29704 | 4.75731 | 0 ft | 20 kts | 34° |
| 2026-05-06 13:51 | 52.29816 | 4.75832 | 0 ft | 16 kts | 30° |
| 2026-05-06 13:52 | 52.29877 | 4.75884 | 0 ft | 4 kts | 28° |
| 2026-05-06 13:52 | 52.29899 | 4.75903 | 0 ft | 3 kts | 29° |
| 2026-05-06 13:52 | 52.29935 | 4.75936 | 0 ft | 9 kts | 30° |
| 2026-05-06 13:52 | 52.29996 | 4.76001 | 0 ft | 10 kts | 52° |
| 2026-05-06 13:53 | 52.30035 | 4.76103 | 0 ft | 10 kts | 59° |
| 2026-05-06 13:53 | 52.30076 | 4.76207 | 0 ft | 10 kts | 60° |
| 2026-05-06 13:53 | 52.30126 | 4.76292 | 0 ft | 10 kts | 4° |
| 2026-05-06 13:53 | 52.30207 | 4.76255 | 0 ft | 12 kts | 327° |
| 2026-05-06 13:54 | 52.30242 | 4.76219 | 0 ft | 4 kts | 328° |
| 2026-05-06 13:54 | 52.30272 | 4.76188 | 0 ft | 3 kts | 327° |
| 2026-05-06 13:54 | 52.30269 | 4.76154 | 0 ft | 5 kts | 238° |
| 2026-05-06 13:54 | 52.30255 | 4.76116 | 0 ft | 0 kts | 238° |
| 2026-05-06 13:55 | 52.30254 | 4.76115 | 0 ft | 0 kts | 238° |